map of TCP home
Great Circle Mapper logo
TCP - Airport
Location
City:  Taba, Egypt
Near (Alt.):Al Nakb
Name:Taba International Airport
ICAO / IATA:HETB / TCP

Details
Type:Airport (Aerodrome, Airfield)
Use:Public/Civil, International (customs port of entry)
Latitude:2935'16"N (29.587778)
Longitude:3446'41"E (34.778056)
Datum:WGS 1984
Elevation:2415 ft (736 m)
Runways:2
Longest:13123 × 148 ft (4000 × 45 m), paved

Time
Time Zone:UTC+2
Local Time:

Weather
TAF:HETB 170500Z 1706/1812 34010KT CAVOK

Related Locations
Nearby:
Farthest:NTAV: 12011 mi / 19330 km
Raivavae, Tubuai Islands, Austral Islands, PF

Find:

   beyond  
but within

Other Information
Maps:
NOTAMs:
Links:
Sources:

  
flag of Egypt   

Sectional Chart

Flight Planning
at skyvector.com

Satellite Image

Google Maps Satellite View

 

Copyright © 2004-2014 Karl L. Swartz. All rights reserved.
The Great Circle Mapper name and logo are trademarks of the Great Circle Mapper.
All other trademarks mentioned herein belong to their respective owners.
Please see credits for attibutions and further copyright information.

  Follow gcmap on Facebook Follow gcmap on Twitter

hCard Microformat

Geo Microformat